createdAt,value
2023-03-05T00:01:22.678Z,16.07
2023-03-05T00:03:52.991Z,13.20
2023-03-05T00:06:21.490Z,13.53
2023-03-05T00:08:49.350Z,14.90
2023-03-05T00:11:17.573Z,11.90
2023-03-05T00:13:45.602Z,15.00
2023-03-05T00:16:16.618Z,13.70
2023-03-05T00:18:46.266Z,13.97
2023-03-05T00:21:21.792Z,13.17
2023-03-05T00:23:50.748Z,15.03
2023-03-05T00:26:19.279Z,11.83
2023-03-05T00:28:49.926Z,12.07
2023-03-05T00:31:18.984Z,13.90
2023-03-05T00:33:47.062Z,11.10
2023-03-05T00:36:14.902Z,12.37
2023-03-05T00:38:44.054Z,14.23
2023-03-05T00:41:12.138Z,13.00
2023-03-05T00:43:40.051Z,11.70
2023-03-05T00:46:07.878Z,12.03
2023-03-05T00:48:35.830Z,18.00
2023-03-05T00:51:03.741Z,16.37
2023-03-05T00:53:31.678Z,11.30
2023-03-05T00:56:00.861Z,11.33
2023-03-05T00:58:28.756Z,13.83
2023-03-05T01:00:59.140Z,16.97
2023-03-05T01:03:27.394Z,12.67
2023-03-05T01:05:56.800Z,12.37
2023-03-05T01:08:24.775Z,12.30
2023-03-05T01:10:53.070Z,13.53
2023-03-05T01:13:22.458Z,12.20
2023-03-05T01:15:51.124Z,13.30
2023-03-05T01:18:19.949Z,13.90
2023-03-05T01:20:48.741Z,16.10
2023-03-05T01:23:17.254Z,10.43
2023-03-05T01:25:45.345Z,10.80
2023-03-05T01:28:13.360Z,11.50
2023-03-05T01:30:42.630Z,18.57
2023-03-05T01:33:10.506Z,9.27
2023-03-05T01:35:38.487Z,10.77
2023-03-05T01:38:06.393Z,11.37
2023-03-05T01:40:34.622Z,11.70
2023-03-05T01:43:17.151Z,11.80
2023-03-05T01:46:18.190Z,12.57
2023-03-05T01:48:51.251Z,9.50
2023-03-05T01:51:21.190Z,10.57
2023-03-05T01:53:49.595Z,14.07
2023-03-05T01:56:18.008Z,13.80
2023-03-05T01:58:46.324Z,10.80
2023-03-05T02:01:14.233Z,10.77
2023-03-05T02:03:43.386Z,14.33
2023-03-05T02:06:12.706Z,14.20
2023-03-05T02:08:40.595Z,13.07
2023-03-05T02:11:09.783Z,12.83
2023-03-05T02:13:40.713Z,12.47
2023-03-05T02:16:09.116Z,11.57
2023-03-05T02:18:37.148Z,12.10
2023-03-05T02:21:08.049Z,11.00
2023-03-05T02:23:38.391Z,13.20
2023-03-05T02:26:08.040Z,11.20
2023-03-05T02:28:39.975Z,12.30
2023-03-05T02:31:10.945Z,11.80
2023-03-05T02:33:38.860Z,12.83
2023-03-05T02:36:09.613Z,15.83
2023-03-05T02:38:37.614Z,11.17
2023-03-05T02:41:06.147Z,12.13
2023-03-05T02:43:34.077Z,11.73
2023-03-05T02:46:02.068Z,11.13
2023-03-05T02:48:30.014Z,14.97
2023-03-05T02:50:58.782Z,13.80
2023-03-05T02:53:28.063Z,14.60
2023-03-05T02:55:55.979Z,11.33
2023-03-05T02:58:23.938Z,11.53
2023-03-05T03:00:52.290Z,12.43
2023-03-05T03:03:20.263Z,10.13
2023-03-05T03:05:48.156Z,13.70
2023-03-05T03:08:16.069Z,11.00
2023-03-05T03:10:45.357Z,11.63
2023-03-05T03:13:13.291Z,9.50
2023-03-05T03:15:41.332Z,10.20
2023-03-05T03:18:09.261Z,13.80
2023-03-05T03:20:39.227Z,13.90
2023-03-05T03:23:07.813Z,11.73
2023-03-05T03:25:36.298Z,11.17
2023-03-05T03:28:05.653Z,11.50
2023-03-05T03:30:33.494Z,10.23
2023-03-05T03:33:01.346Z,9.10
2023-03-05T03:35:29.347Z,12.30
2023-03-05T03:37:57.180Z,11.40
2023-03-05T03:40:25.045Z,13.87
2023-03-05T03:42:53.094Z,10.00
2023-03-05T03:45:22.452Z,9.20
2023-03-05T03:47:50.387Z,11.23
2023-03-05T03:50:18.446Z,16.70
2023-03-05T03:52:46.323Z,11.97
2023-03-05T03:55:15.241Z,12.93
2023-03-05T03:57:43.746Z,13.53
2023-03-05T04:00:13.095Z,11.87
2023-03-05T04:02:42.375Z,12.13
2023-03-05T04:05:10.746Z,13.37
2023-03-05T04:07:38.595Z,13.50
2023-03-05T04:10:07.229Z,13.40
2023-03-05T04:12:35.117Z,16.77
2023-03-05T04:15:02.951Z,18.23
2023-03-05T04:17:30.889Z,20.20
2023-03-05T04:20:00.235Z,15.13
2023-03-05T04:22:28.419Z,15.10
2023-03-05T04:24:56.380Z,15.53
2023-03-05T04:27:24.280Z,12.63
2023-03-05T04:29:52.169Z,14.23
2023-03-05T04:32:23.194Z,10.67
2023-03-05T04:34:51.509Z,12.17
2023-03-05T04:37:20.761Z,16.30
2023-03-05T04:39:48.675Z,16.63
2023-03-05T04:42:16.483Z,16.47
2023-03-05T04:44:44.322Z,9.57
2023-03-05T04:47:12.110Z,16.20
2023-03-05T04:49:40.015Z,12.27
2023-03-05T04:52:08.097Z,12.87
2023-03-05T04:54:37.291Z,14.93
2023-03-05T04:57:05.981Z,12.40
2023-03-05T04:59:34.055Z,13.30
2023-03-05T05:02:02.081Z,14.10
2023-03-05T05:04:29.985Z,12.90
2023-03-05T05:06:57.973Z,13.00
2023-03-05T05:09:26.730Z,11.80
2023-03-05T05:11:55.943Z,13.83
2023-03-05T05:14:23.955Z,10.63
2023-03-05T05:16:51.985Z,11.83
2023-03-05T05:19:19.912Z,13.13
2023-03-05T05:21:47.887Z,15.50
2023-03-05T05:24:15.731Z,11.87
2023-03-05T05:26:43.610Z,17.70
2023-03-05T05:29:12.834Z,15.43
2023-03-05T05:31:40.773Z,11.50
2023-03-05T05:34:08.691Z,14.20
2023-03-05T05:36:36.582Z,15.90
2023-03-05T05:39:04.817Z,10.80
2023-03-05T05:41:32.697Z,12.47
2023-03-05T05:44:00.505Z,15.20
2023-03-05T05:46:29.874Z,11.93
2023-03-05T05:48:57.798Z,13.10
2023-03-05T05:51:25.923Z,17.67
2023-03-05T05:53:54.044Z,12.47
2023-03-05T05:56:22.041Z,13.87
2023-03-05T05:58:50.487Z,11.40
2023-03-05T06:01:21.458Z,13.30
2023-03-05T06:03:50.922Z,12.97
2023-03-05T06:06:21.608Z,14.50
2023-03-05T06:08:50.906Z,12.83
2023-03-05T06:11:19.722Z,14.63
2023-03-05T06:13:47.952Z,28.67
2023-03-05T06:16:17.835Z,15.37
2023-03-05T06:18:45.790Z,14.00
2023-03-05T06:21:16.811Z,17.20
2023-03-05T06:23:45.925Z,12.63
2023-03-05T06:26:17.239Z,13.60
2023-03-05T06:28:45.390Z,12.17
2023-03-05T06:31:15.627Z,12.40
2023-03-05T06:33:44.571Z,13.97
2023-03-05T06:36:16.003Z,12.07
2023-03-05T06:38:44.416Z,16.50
2023-03-05T06:41:14.521Z,15.10
2023-03-05T06:43:44.224Z,15.37
2023-03-05T06:46:14.405Z,15.67
2023-03-05T06:48:43.208Z,14.33
2023-03-05T06:51:16.421Z,25.77
2023-03-05T06:53:44.739Z,14.70
2023-03-05T06:56:13.997Z,14.80
2023-03-05T06:58:41.971Z,14.60
2023-03-05T07:01:09.977Z,11.70
2023-03-05T07:03:38.431Z,14.30
2023-03-05T07:06:07.567Z,12.10
2023-03-05T07:08:37.148Z,14.80
2023-03-05T07:11:05.539Z,14.07
2023-03-05T07:13:33.439Z,14.40
2023-03-05T07:16:05.462Z,14.33
2023-03-05T07:18:33.425Z,12.47
2023-03-05T07:21:03.870Z,15.00
2023-03-05T07:23:31.987Z,12.93
2023-03-05T07:26:03.508Z,11.90
2023-03-05T07:28:31.421Z,12.97
2023-03-05T07:31:00.253Z,13.90
2023-03-05T07:33:28.893Z,12.43
2023-03-05T07:35:57.234Z,13.27
2023-03-05T07:38:25.247Z,15.87
2023-03-05T07:40:53.138Z,14.00
2023-03-05T07:43:22.415Z,15.53
2023-03-05T07:45:51.057Z,30.17
2023-03-05T07:48:21.424Z,17.93
2023-03-05T07:50:50.880Z,15.40
2023-03-05T07:53:19.069Z,14.77
2023-03-05T07:55:47.968Z,12.50
2023-03-05T07:58:16.256Z,13.23
2023-03-05T08:00:45.683Z,12.20
2023-03-05T08:03:13.496Z,11.83
2023-03-05T08:05:41.841Z,13.23
2023-03-05T08:08:10.444Z,10.23
2023-03-05T08:10:39.092Z,14.17
2023-03-05T08:13:07.392Z,11.80
2023-03-05T08:15:35.352Z,9.70
2023-03-05T08:18:05.225Z,10.23
2023-03-05T08:20:35.977Z,9.70
2023-03-05T08:23:04.494Z,13.47
2023-03-05T08:25:32.495Z,9.13
2023-03-05T08:28:00.348Z,12.97
2023-03-05T08:30:28.234Z,14.73
2023-03-05T08:32:57.387Z,15.13
2023-03-05T08:35:26.616Z,13.10
2023-03-05T08:37:54.529Z,10.80
2023-03-05T08:40:22.509Z,13.83
2023-03-05T08:42:51.972Z,15.23
2023-03-05T08:45:19.827Z,13.50
2023-03-05T08:47:47.729Z,17.10
2023-03-05T08:50:15.617Z,12.70
2023-03-05T08:52:45.058Z,12.60
2023-03-05T08:55:13.522Z,13.67
2023-03-05T08:57:41.426Z,11.83
2023-03-05T09:00:12.548Z,10.20
2023-03-05T09:02:40.535Z,12.70
2023-03-05T09:05:09.598Z,15.17
2023-03-05T09:07:38.283Z,11.70
2023-03-05T09:10:10.297Z,17.60
2023-03-05T09:12:39.160Z,11.93
2023-03-05T09:15:09.227Z,10.90
2023-03-05T09:17:38.525Z,12.80
2023-03-05T09:20:07.792Z,13.03
2023-03-05T09:22:35.646Z,11.60
2023-03-05T09:25:03.553Z,9.67
2023-03-05T09:27:35.818Z,9.13
2023-03-05T09:30:04.671Z,9.50
2023-03-05T09:32:32.600Z,10.70
2023-03-05T09:35:00.471Z,10.60
2023-03-05T09:37:29.423Z,10.00
2023-03-05T09:39:57.682Z,10.90
2023-03-05T09:42:46.920Z,8.67
2023-03-05T09:45:23.618Z,12.90
2023-03-05T09:48:02.313Z,9.20
2023-03-05T09:50:38.603Z,12.00
2023-03-05T09:53:17.354Z,9.87
2023-03-05T09:55:48.351Z,9.37
2023-03-05T09:58:20.547Z,11.23
2023-03-05T10:00:51.047Z,11.83
2023-03-05T10:03:23.846Z,11.20
2023-03-05T10:06:07.488Z,13.53
2023-03-05T10:08:47.194Z,8.77
2023-03-05T10:11:31.406Z,7.57
2023-03-05T10:14:00.659Z,7.27
2023-03-05T10:16:56.076Z,9.23
2023-03-05T10:19:41.827Z,9.87
2023-03-05T10:22:19.190Z,10.13
2023-03-05T10:25:01.590Z,8.57
2023-03-05T10:27:40.776Z,8.63
2023-03-05T10:30:32.439Z,9.63
2023-03-05T10:33:13.276Z,8.10
2023-03-05T10:35:51.567Z,8.67
2023-03-05T10:38:38.539Z,8.50
2023-03-05T10:41:17.992Z,9.27
2023-03-05T10:43:53.409Z,9.83
2023-03-05T10:46:26.311Z,10.27
2023-03-05T10:48:58.704Z,9.13
2023-03-05T10:51:35.139Z,7.33
2023-03-05T10:54:10.597Z,9.33
2023-03-05T10:56:38.607Z,8.60
2023-03-05T10:59:06.524Z,13.93
2023-03-05T11:01:37.794Z,8.73
2023-03-05T11:04:08.082Z,9.97
2023-03-05T11:06:38.807Z,7.37
2023-03-05T11:09:29.288Z,7.73
2023-03-05T11:12:13.445Z,8.47
2023-03-05T11:14:43.944Z,7.07
2023-03-05T11:17:29.486Z,8.07
2023-03-05T11:19:58.622Z,8.07
2023-03-05T11:22:26.958Z,10.57
2023-03-05T11:25:13.455Z,7.77
2023-03-05T11:27:51.492Z,10.27
2023-03-05T11:30:22.460Z,10.00
2023-03-05T11:32:51.818Z,8.40
2023-03-05T11:35:34.327Z,7.40
2023-03-05T11:38:03.492Z,6.30
2023-03-05T11:40:32.411Z,4.27
2023-03-05T11:43:02.777Z,4.57
2023-03-05T11:45:32.807Z,5.23
2023-03-05T11:48:09.555Z,5.73
2023-03-05T11:50:42.019Z,4.90
2023-03-05T11:53:15.755Z,4.90
2023-03-05T11:55:46.212Z,5.87
2023-03-05T11:58:27.586Z,6.93
2023-03-05T12:00:56.014Z,3.80
2023-03-05T12:03:30.405Z,5.70
2023-03-05T12:06:03.206Z,5.47
2023-03-05T12:08:36.270Z,4.80
2023-03-05T12:11:10.619Z,4.43
2023-03-05T12:13:43.982Z,3.20
2023-03-05T12:16:24.348Z,3.80
2023-03-05T12:19:08.983Z,3.30
2023-03-05T12:21:39.207Z,4.60
2023-03-05T12:24:35.608Z,4.00
2023-03-05T12:27:14.692Z,3.87
2023-03-05T12:29:49.171Z,5.87
2023-03-05T12:32:55.830Z,3.60
2023-03-05T12:35:27.542Z,7.23
2023-03-05T12:38:26.800Z,3.47
2023-03-05T12:41:35.714Z,3.77
2023-03-05T12:44:21.033Z,3.33
2023-03-05T12:47:17.766Z,3.60
2023-03-05T12:49:46.927Z,4.03
2023-03-05T12:52:23.943Z,4.80
2023-03-05T12:55:15.568Z,6.33
2023-03-05T12:57:45.109Z,4.60
2023-03-05T13:00:21.592Z,4.23
2023-03-05T13:02:55.965Z,5.87
2023-03-05T13:05:28.070Z,3.97
2023-03-05T13:08:11.312Z,3.83
2023-03-05T13:10:40.909Z,6.10
2023-03-05T13:13:15.864Z,5.20
2023-03-05T13:15:47.507Z,5.00
2023-03-05T13:18:21.329Z,3.50
2023-03-05T13:20:56.178Z,4.23
2023-03-05T13:23:27.108Z,4.20
2023-03-05T13:26:00.824Z,4.10
2023-03-05T13:28:29.134Z,4.50
2023-03-05T13:30:59.657Z,3.93
2023-03-05T13:33:30.714Z,5.50
2023-03-05T13:35:59.065Z,3.90
2023-03-05T13:38:34.332Z,4.20
2023-03-05T13:41:07.636Z,4.97
2023-03-05T13:43:35.615Z,5.07
2023-03-05T13:46:03.663Z,4.30
2023-03-05T13:48:31.544Z,5.23
2023-03-05T13:50:59.818Z,3.63
2023-03-05T13:53:30.943Z,3.50
2023-03-05T13:55:59.991Z,4.07
2023-03-05T13:58:49.330Z,3.80
2023-03-05T14:01:25.650Z,3.80
2023-03-05T14:03:56.040Z,4.03
2023-03-05T14:06:27.178Z,3.60
2023-03-05T14:09:03.807Z,4.80
2023-03-05T14:11:31.740Z,5.30
2023-03-05T14:14:07.617Z,5.70
2023-03-05T14:16:35.702Z,4.43
2023-03-05T14:19:07.161Z,4.63
2023-03-05T14:21:46.926Z,4.23
2023-03-05T14:24:22.785Z,4.17
2023-03-05T14:26:53.261Z,5.70
2023-03-05T14:29:24.398Z,6.80
2023-03-05T14:31:55.334Z,3.60
2023-03-05T14:34:27.514Z,5.53
2023-03-05T14:36:58.799Z,4.50
2023-03-05T14:39:46.587Z,4.50
2023-03-05T14:42:26.799Z,3.73
2023-03-05T14:44:56.522Z,4.93
2023-03-05T14:47:25.064Z,3.57
2023-03-05T14:49:53.559Z,4.30
2023-03-05T14:52:24.060Z,3.27
2023-03-05T14:54:54.118Z,4.47
2023-03-05T14:57:24.044Z,5.13
2023-03-05T14:59:51.934Z,5.03
2023-03-05T15:02:21.886Z,4.77
2023-03-05T15:04:50.072Z,4.57
2023-03-05T15:07:21.445Z,4.20
2023-03-05T15:09:49.356Z,4.03
2023-03-05T15:12:19.026Z,3.40
2023-03-05T15:14:46.915Z,4.87
2023-03-05T15:17:19.874Z,3.93
2023-03-05T15:19:48.083Z,3.90
2023-03-05T15:22:16.537Z,3.10
2023-03-05T15:24:45.170Z,3.80
2023-03-05T15:27:14.522Z,5.53
2023-03-05T15:29:43.850Z,3.90
2023-03-05T15:32:12.025Z,4.03
2023-03-05T15:34:39.957Z,4.20
2023-03-05T15:37:08.046Z,4.27
2023-03-05T15:39:35.898Z,3.30
2023-03-05T15:42:06.253Z,3.60
2023-03-05T15:44:34.322Z,3.60
2023-03-05T15:47:03.545Z,3.70
2023-03-05T15:49:31.447Z,4.30
2023-03-05T15:51:59.692Z,5.40
2023-03-05T15:54:28.302Z,5.53
2023-03-05T15:56:56.161Z,4.37
2023-03-05T15:59:23.984Z,4.47
2023-03-05T16:01:52.709Z,4.10
2023-03-05T16:04:21.974Z,4.10
2023-03-05T16:06:51.340Z,3.77
2023-03-05T16:09:21.681Z,3.47
2023-03-05T16:11:51.460Z,4.53
2023-03-05T16:14:23.751Z,3.83
2023-03-05T16:16:54.170Z,3.57
2023-03-05T16:19:24.786Z,3.10
2023-03-05T16:21:52.710Z,3.30
2023-03-05T16:24:20.579Z,4.67
2023-03-05T16:26:48.810Z,4.30
2023-03-05T16:29:16.724Z,3.57
2023-03-05T16:31:45.420Z,3.43
2023-03-05T16:34:16.141Z,3.90
2023-03-05T16:36:52.089Z,3.43
2023-03-05T16:39:20.655Z,3.03
2023-03-05T16:41:48.832Z,3.37
2023-03-05T16:44:17.061Z,3.20
2023-03-05T16:46:49.148Z,3.43
2023-03-05T16:49:17.420Z,3.50
2023-03-05T16:51:45.261Z,3.70
2023-03-05T16:54:14.557Z,4.80
2023-03-05T16:56:42.464Z,5.60
2023-03-05T16:59:11.555Z,5.20
2023-03-05T17:01:39.458Z,4.43
2023-03-05T17:04:08.546Z,5.90
2023-03-05T17:06:36.547Z,5.43
2023-03-05T17:09:05.166Z,4.60
2023-03-05T17:11:34.527Z,7.57
2023-03-05T17:14:03.993Z,5.33
2023-03-05T17:16:32.270Z,5.00
2023-03-05T17:19:00.283Z,4.50
2023-03-05T17:21:28.216Z,6.37
2023-03-05T17:23:56.726Z,4.73
2023-03-05T17:26:24.797Z,5.70
2023-03-05T17:28:54.847Z,12.77
2023-03-05T17:31:22.836Z,7.50
2023-03-05T17:33:50.803Z,5.93
2023-03-05T17:36:20.770Z,7.50
2023-03-05T17:38:49.124Z,7.77
2023-03-05T17:41:18.526Z,6.37
2023-03-05T17:43:46.851Z,6.23
2023-03-05T17:46:16.961Z,15.83
2023-03-05T17:48:45.211Z,14.17
2023-03-05T17:51:16.285Z,11.77
2023-03-05T17:53:46.014Z,7.47
2023-03-05T17:56:15.971Z,5.90
2023-03-05T17:58:44.207Z,5.57
2023-03-05T18:01:12.198Z,4.90
2023-03-05T18:03:41.442Z,4.80
2023-03-05T18:06:09.360Z,4.40
2023-03-05T18:08:37.273Z,5.40
2023-03-05T18:11:05.399Z,9.07
2023-03-05T18:13:33.298Z,6.10
2023-03-05T18:16:01.694Z,6.83
2023-03-05T18:18:30.346Z,5.87
2023-03-05T18:20:59.662Z,6.20
2023-03-05T18:23:27.593Z,6.63
2023-03-05T18:25:55.449Z,5.50
2023-03-05T18:28:25.680Z,4.47
2023-03-05T18:30:54.445Z,4.90
2023-03-05T18:33:24.483Z,3.90
2023-03-05T18:35:53.534Z,3.73
2023-03-05T18:38:24.956Z,3.70
2023-03-05T18:40:53.917Z,3.50
2023-03-05T18:43:23.728Z,3.40
2023-03-05T18:45:53.695Z,3.30
2023-03-05T18:48:22.184Z,3.47
2023-03-05T18:50:51.495Z,3.47
2023-03-05T18:53:20.121Z,3.63
2023-03-05T18:55:51.311Z,3.07
2023-03-05T18:58:20.236Z,5.20
2023-03-05T19:00:49.636Z,4.70
2023-03-05T19:03:18.527Z,3.40
2023-03-05T19:05:47.265Z,3.53
2023-03-05T19:08:15.166Z,5.70
2023-03-05T19:10:43.133Z,3.03
2023-03-05T19:13:40.895Z,3.40
2023-03-05T19:16:11.204Z,3.70
2023-03-05T19:18:57.930Z,4.80
2023-03-05T19:21:31.643Z,2.90
2023-03-05T19:23:59.575Z,3.00
2023-03-05T19:26:27.668Z,3.30
2023-03-05T19:28:56.998Z,2.90
2023-03-05T19:31:25.029Z,3.37
2023-03-05T19:33:52.987Z,2.90
2023-03-05T19:36:21.140Z,3.30
2023-03-05T19:38:49.759Z,6.10
2023-03-05T19:41:19.455Z,10.23
2023-03-05T19:43:49.177Z,6.03
2023-03-05T19:46:19.171Z,6.20
2023-03-05T19:48:47.567Z,4.87
2023-03-05T19:51:17.675Z,5.37
2023-03-05T19:53:45.912Z,4.30
2023-03-05T19:56:15.809Z,4.83
2023-03-05T19:58:45.477Z,14.30
2023-03-05T20:01:15.472Z,9.67
2023-03-05T20:03:48.804Z,5.43
2023-03-05T20:06:17.176Z,7.20
2023-03-05T20:08:45.497Z,5.03
2023-03-05T20:11:15.119Z,6.20
2023-03-05T20:13:44.061Z,5.67
2023-03-05T20:16:16.906Z,5.77
2023-03-05T20:18:46.733Z,6.33
2023-03-05T20:21:21.392Z,9.70
2023-03-05T20:23:49.732Z,5.87
2023-03-05T20:26:17.570Z,6.80
2023-03-05T20:28:45.647Z,5.83
2023-03-05T20:31:13.695Z,6.03
2023-03-05T20:33:41.728Z,5.80
2023-03-05T20:36:11.304Z,5.03
2023-03-05T20:38:39.325Z,6.23
2023-03-05T20:41:09.639Z,7.03
2023-03-05T20:43:40.817Z,5.90
2023-03-05T20:46:16.132Z,5.67
2023-03-05T20:48:44.163Z,6.13
2023-03-05T20:51:14.820Z,5.07
2023-03-05T20:53:43.113Z,5.97
2023-03-05T20:56:11.171Z,5.17
2023-03-05T20:58:39.146Z,5.40
2023-03-05T21:01:07.506Z,6.87
2023-03-05T21:03:37.125Z,4.50
2023-03-05T21:06:06.311Z,4.80
2023-03-05T21:08:35.604Z,3.57
2023-03-05T21:11:06.627Z,3.70
2023-03-05T21:13:34.829Z,4.10
2023-03-05T21:16:07.086Z,4.23
2023-03-05T21:18:35.206Z,7.17
2023-03-05T21:21:03.335Z,4.60
2023-03-05T21:23:31.195Z,3.60
2023-03-05T21:26:00.500Z,4.73
2023-03-05T21:28:29.480Z,5.23
2023-03-05T21:30:57.928Z,4.47
2023-03-05T21:33:28.229Z,4.70
2023-03-05T21:35:58.096Z,6.73
2023-03-05T21:38:29.888Z,5.27
2023-03-05T21:41:00.683Z,8.40
2023-03-05T21:43:29.119Z,5.90
2023-03-05T21:45:57.713Z,8.80
2023-03-05T21:48:25.851Z,9.07
2023-03-05T21:50:55.098Z,7.50
2023-03-05T21:53:23.625Z,8.20
2023-03-05T21:56:26.387Z,5.90
2023-03-05T21:58:54.818Z,6.43
2023-03-05T22:01:22.918Z,5.63
2023-03-05T22:03:51.375Z,6.17
2023-03-05T22:06:20.476Z,5.80
2023-03-05T22:08:48.394Z,8.23
2023-03-05T22:11:19.226Z,7.10
2023-03-05T22:13:47.105Z,6.40
2023-03-05T22:16:22.888Z,8.53
2023-03-05T22:18:50.758Z,5.50
2023-03-05T22:21:20.717Z,7.37
2023-03-05T22:23:49.733Z,5.07
2023-03-05T22:26:19.001Z,6.23
2023-03-05T22:28:47.230Z,7.80
2023-03-05T22:31:21.930Z,5.23
2023-03-05T22:33:50.570Z,7.33
2023-03-05T22:36:18.972Z,4.43
2023-03-05T22:38:47.559Z,7.20
2023-03-05T22:41:17.217Z,5.40
2023-03-05T22:43:47.135Z,4.83
2023-03-05T22:46:17.160Z,6.77
2023-03-05T22:48:45.996Z,7.23
2023-03-05T22:51:14.589Z,8.07
2023-03-05T22:53:42.810Z,10.30
2023-03-05T22:56:13.460Z,12.70
2023-03-05T22:58:41.783Z,5.30
2023-03-05T23:01:15.258Z,7.57
2023-03-05T23:04:02.707Z,6.00
2023-03-05T23:06:48.479Z,8.63
2023-03-05T23:09:16.611Z,6.77
2023-03-05T23:11:44.554Z,8.10
2023-03-05T23:14:12.758Z,5.87
2023-03-05T23:16:41.926Z,10.57
2023-03-05T23:19:09.758Z,6.53
2023-03-05T23:21:37.618Z,6.70
2023-03-05T23:24:05.992Z,5.10
2023-03-05T23:26:33.912Z,9.27
2023-03-05T23:29:01.813Z,5.43
2023-03-05T23:31:29.634Z,8.50
2023-03-05T23:33:59.513Z,6.30
2023-03-05T23:36:27.508Z,6.67
2023-03-05T23:38:58.021Z,6.57
2023-03-05T23:41:25.900Z,5.90
2023-03-05T23:43:53.796Z,6.50
2023-03-05T23:46:21.701Z,7.50
2023-03-05T23:48:49.671Z,7.10
2023-03-05T23:51:19.068Z,5.43
2023-03-05T23:53:48.320Z,6.90
2023-03-05T23:56:16.212Z,6.07
2023-03-05T23:58:44.022Z,4.70
